In Rescue
 
Open Full Screen Window  High Contrast Mode
November 20, 2019 1:43 AM CST
Weather Information
Wind Direction
  ---
Wind Speed
  00 kt (0 mph)
Wind Gust
  00 kt (0 mph)
Altimeter
30.01 in
Visibility
10 SM
Temperature
00° C
32° F
Dewpoint
-01° C
30° F
Humidity
93%
1hr Rain Fall
00.00 in.
24hr Rain Fall
00.00 in.
Sky Condition
Overcast @ 3,600 ft
VFR

METAR KFOZ 200743Z AUTO 00000KT 10SM OVC036 00/M01 A3001 RMK AO2

FAA Disclaimer: The data displayed is for advisory purposes only and is not to be used for flight planning or operations.